Time;durP1;ratioP1;P1;durP2;ratioP2;P2;SDS_P1;SDS_P2;PMS_P1;PMS_P2;Temp;Humidity;BMP_temperature;BMP_pressure;BME280_temperature;BME280_humidity;BME280_pressure;Samples;Min_cycle;Max_cycle;Signal;HPM_P1;HPM_P2
2021/10/17 00:01:51;;;;;;;40.30;22.20;;;;;;;8.91;72.83;100833.55;2108433;82;29328;-64
2021/10/17 00:04:54;;;;;;;41.83;21.60;;;;;;;8.92;72.87;100835.30;2077411;84;27814;-63
2021/10/17 00:07:57;;;;;;;41.05;21.15;;;;;;;8.93;72.91;100836.15;2088353;83;28670;-64
2021/10/17 00:11:01;;;;;;;40.70;21.23;;;;;;;8.93;72.95;100836.15;2099703;83;31047;-63
2021/10/17 00:14:03;;;;;;;40.33;20.85;;;;;;;8.92;72.90;100842.42;2108139;83;32961;-63
2021/10/17 00:17:07;;;;;;;48.60;21.65;;;;;;;8.91;72.82;100842.90;2085552;83;30155;-64
2021/10/17 00:20:14;;;;;;;43.38;21.20;;;;;;;8.89;72.84;100842.52;2096421;83;27691;-63
2021/10/17 00:23:21;;;;;;;39.83;20.92;;;;;;;8.88;72.80;100835.42;2123961;81;27791;-62
2021/10/17 00:26:25;;;;;;;40.90;21.57;;;;;;;8.85;72.77;100839.08;2128854;81;31082;-64
2021/10/17 00:29:30;;;;;;;44.18;21.25;;;;;;;8.84;72.78;100842.68;2129990;81;32972;-63
2021/10/17 00:32:32;;;;;;;41.23;19.85;;;;;;;8.82;72.86;100837.84;2091365;82;29418;-63
2021/10/17 00:35:36;;;;;;;47.65;22.17;;;;;;;8.80;72.82;100836.58;2129424;81;27630;-63
2021/10/17 00:38:38;;;;;;;46.83;21.75;;;;;;;8.79;72.81;100837.50;2138367;81;28640;-63
2021/10/17 00:41:42;;;;;;;39.90;20.23;;;;;;;8.77;72.80;100835.34;2103683;83;30948;-63
2021/10/17 00:44:48;;;;;;;47.25;21.65;;;;;;;8.76;72.87;100829.58;2104272;83;33039;-63
2021/10/17 00:47:54;;;;;;;49.95;23.47;;;;;;;8.76;72.80;100833.59;2154388;81;29353;-63
2021/10/17 00:51:00;;;;;;;40.50;21.60;;;;;;;8.75;72.86;100830.98;2083024;82;28007;-63
2021/10/17 00:54:06;;;;;;;39.73;22.20;;;;;;;8.74;72.93;100832.77;2127307;81;29632;-63
2021/10/17 00:57:12;;;;;;;43.95;22.07;;;;;;;8.75;72.99;100834.98;2126429;82;31016;-62
2021/10/17 01:00:16;;;;;;;45.40;22.00;;;;;;;8.75;72.99;100834.98;2032856;84;33168;-63
2021/10/17 01:03:22;;;;;;;42.30;21.60;;;;;;;8.73;73.03;100824.81;2045545;84;30031;-62
2021/10/17 01:06:28;;;;;;;49.73;21.95;;;;;;;8.73;72.95;100830.16;2074614;83;27653;-62
2021/10/17 01:09:35;;;;;;;41.85;21.82;;;;;;;8.71;72.97;100827.99;2094132;83;28671;-63
2021/10/17 01:12:38;;;;;;;45.50;21.95;;;;;;;8.70;73.02;100830.25;2098124;83;31062;-62
2021/10/17 01:15:41;;;;;;;40.75;21.07;;;;;;;8.69;73.08;100824.02;2104946;83;32985;-62
2021/10/17 01:18:46;;;;;;;38.20;21.93;;;;;;;8.71;73.12;100823.98;2124295;81;30403;-62
2021/10/17 01:21:52;;;;;;;40.78;22.05;;;;;;;8.69;73.14;100818.67;2065193;83;28035;-62
2021/10/17 01:24:58;;;;;;;43.48;21.05;;;;;;;8.69;73.17;100816.48;2122169;82;29538;-62
2021/10/17 01:28:03;;;;;;;42.58;22.65;;;;;;;8.68;73.25;100816.95;2129261;81;30995;-62
2021/10/17 01:31:09;;;;;;;44.53;22.37;;;;;;;8.68;73.20;100811.62;2129181;81;33974;-63
2021/10/17 01:34:14;;;;;;;46.75;22.37;;;;;;;8.69;73.18;100812.48;2129278;82;29401;-62
2021/10/17 01:37:19;;;;;;;49.15;23.62;;;;;;;8.66;73.14;100800.11;2129444;81;27700;-62
2021/10/17 01:40:23;;;;;;;;;;;;;;;8.65;73.27;100805.04;2099313;83;28684;-62
2021/10/17 01:43:29;;;;;;;45.52;23.30;;;;;;;8.64;73.33;100791.27;2076477;84;31765;-62
2021/10/17 01:46:36;;;;;;;49.55;23.98;;;;;;;8.62;73.36;100794.45;2073620;84;33892;-62
2021/10/17 01:49:42;;;;;;;46.42;22.60;;;;;;;8.62;73.30;100795.78;2086089;83;29371;-63
2021/10/17 01:52:48;;;;;;;43.98;22.05;;;;;;;8.60;73.36;100794.52;2153683;81;27703;-63
2021/10/17 01:55:54;;;;;;;45.45;23.55;;;;;;;8.61;73.41;100791.37;2101022;83;28671;-62
2021/10/17 01:58:56;;;;;;;40.30;23.40;;;;;;;8.59;73.47;100786.09;2091955;84;31064;-63
2021/10/17 02:02:02;;;;;;;51.98;25.88;;;;;;;8.56;73.53;100783.52;2160468;81;33104;-63
2021/10/17 02:05:03;;;;;;;53.42;26.82;;;;;;;8.56;73.49;100790.19;2126201;82;29375;-62
2021/10/17 02:08:09;;;;;;;53.70;28.02;;;;;;;8.56;73.58;100786.19;2065084;83;27921;-63
2021/10/17 02:11:16;;;;;;;58.45;29.40;;;;;;;8.57;73.66;100790.61;2121605;81;28676;-63
2021/10/17 02:14:22;;;;;;;57.85;31.05;;;;;;;8.56;73.63;100789.30;2116383;81;31072;-63
2021/10/17 02:17:25;;;;;;;57.15;29.70;;;;;;;8.55;73.66;100785.77;2127563;82;32938;-63
2021/10/17 02:20:34;;;;;;;67.55;33.18;;;;;;;8.55;73.74;100783.55;2039119;84;30686;-63
2021/10/17 02:23:35;;;;;;;59.75;31.35;;;;;;;8.56;73.79;100782.19;2158308;81;27657;-62
2021/10/17 02:26:43;;;;;;;66.62;32.15;;;;;;;8.58;73.83;100779.00;2154598;81;28642;-62
2021/10/17 02:29:45;;;;;;;71.55;36.05;;;;;;;8.58;73.89;100769.66;2158904;81;31213;-62
2021/10/17 02:32:51;;;;;;;67.72;36.03;;;;;;;8.56;73.79;100772.83;2162603;81;34210;-62
2021/10/17 02:35:57;;;;;;;77.85;37.78;;;;;;;8.56;73.84;100774.62;2113834;81;30055;-62
2021/10/17 02:38:59;;;;;;;82.92;41.92;;;;;;;8.57;73.83;100773.25;2126596;81;27756;-62
2021/10/17 02:42:04;;;;;;;72.87;35.68;;;;;;;8.57;73.90;100767.02;2109418;82;29835;-62
2021/10/17 02:45:11;;;;;;;79.60;37.93;;;;;;;8.56;73.89;100767.49;2141114;81;30556;-63
2021/10/17 02:48:16;;;;;;;74.03;38.65;;;;;;;8.56;73.95;100766.60;2142231;81;33772;-62
2021/10/17 02:51:23;;;;;;;73.85;37.08;;;;;;;8.57;74.00;100764.34;2140127;81;30260;-63
2021/10/17 02:54:28;;;;;;;65.20;35.58;;;;;;;8.56;74.01;100759.92;2154926;81;27826;-63
2021/10/17 02:57:34;;;;;;;72.00;37.38;;;;;;;8.56;74.11;100762.16;2118412;80;29609;-62
2021/10/17 03:00:36;;;;;;;71.10;36.77;;;;;;;8.57;74.07;100759.89;2056453;84;31080;-62
2021/10/17 03:03:40;;;;;;;63.40;35.35;;;;;;;8.56;74.08;100754.14;2098788;83;34184;-62
2021/10/17 03:06:44;;;;;;;79.05;38.88;;;;;;;8.58;74.16;100763.42;2091938;83;29345;-62
2021/10/17 03:09:49;;;;;;;75.47;38.53;;;;;;;8.58;74.12;100754.08;2086695;83;28091;-63
2021/10/17 03:12:55;;;;;;;86.35;40.63;;;;;;;8.57;74.10;100763.01;2090159;81;28661;-62
2021/10/17 03:15:59;;;;;;;69.30;37.30;;;;;;;8.56;74.09;100761.27;2109600;82;31026;-63
2021/10/17 03:19:05;;;;;;;65.97;34.03;;;;;;;8.55;74.14;100764.86;2104624;83;33763;-62
2021/10/17 03:22:10;;;;;;;62.35;34.33;;;;;;;8.53;74.17;100766.25;2164235;81;29313;-63
2021/10/17 03:25:16;;;;;;;62.95;32.85;;;;;;;8.51;74.23;100770.33;2137321;81;27778;-62
2021/10/17 03:28:22;;;;;;;67.00;35.28;;;;;;;8.51;74.27;100764.98;2149507;81;28755;-62
2021/10/17 03:31:24;;;;;;;71.00;36.13;;;;;;;8.50;74.29;100768.58;2108597;81;31133;-62
2021/10/17 03:34:30;;;;;;;65.95;35.45;;;;;;;8.52;74.40;100776.52;2128252;81;33389;-63
2021/10/17 03:37:37;;;;;;;66.67;34.95;;;;;;;8.51;74.41;100777.00;2130624;82;29344;-62
2021/10/17 03:40:42;;;;;;;72.65;38.48;;;;;;;8.52;74.39;100779.20;2114272;82;27747;-63
2021/10/17 03:43:48;;;;;;;74.80;39.10;;;;;;;8.54;74.49;100776.45;2150796;81;28657;-63
2021/10/17 03:46:53;;;;;;;73.15;40.33;;;;;;;8.53;74.45;100768.92;2162808;81;31946;-62
2021/10/17 03:49:57;;;;;;;66.10;36.42;;;;;;;8.55;74.54;100772.87;2143868;81;33037;-62
2021/10/17 03:53:02;;;;;;;71.62;36.28;;;;;;;8.56;74.52;100773.28;2131796;81;29365;-63
2021/10/17 03:56:08;;;;;;;62.70;34.20;;;;;;;8.55;74.46;100768.41;2123244;81;27749;-62
2021/10/17 03:59:15;;;;;;;68.07;36.25;;;;;;;8.54;74.44;100763.11;2125975;81;28743;-63
2021/10/17 04:02:21;;;;;;;67.27;36.55;;;;;;;8.55;74.51;100762.19;2153358;81;31049;-62
2021/10/17 04:05:26;;;;;;;61.68;35.35;;;;;;;8.54;74.51;100761.77;2135995;81;33007;-62
2021/10/17 04:08:31;;;;;;;63.75;34.83;;;;;;;8.51;74.53;100761.42;2137018;81;30144;-62
2021/10/17 04:11:32;;;;;;;67.57;35.67;;;;;;;8.51;74.63;100768.99;2120367;81;27653;-63
2021/10/17 04:17:43;;;;;;;64.72;32.73;;;;;;;8.51;74.58;100769.44;2052942;83;31094;-63
2021/10/17 04:20:49;;;;;;;63.35;33.42;;;;;;;8.51;74.58;100766.77;2051219;84;33759;-63
2021/10/17 04:23:54;;;;;;;52.75;29.87;;;;;;;8.51;74.64;100769.44;2075391;83;29367;-63
2021/10/17 04:27:02;;;;;;;58.63;31.25;;;;;;;8.53;74.65;100760.02;2098401;82;27798;-63
2021/10/17 04:30:06;;;;;;;47.10;27.93;;;;;;;8.53;74.64;100763.59;2100329;82;29534;-63
2021/10/17 04:33:09;;;;;;;59.83;30.40;;;;;;;8.53;74.59;100756.91;2107143;82;31018;-63
2021/10/17 04:36:15;;;;;;;53.90;29.02;;;;;;;8.54;74.63;100749.31;2075204;84;33146;-62
2021/10/17 04:39:21;;;;;;;60.20;29.95;;;;;;;8.54;74.67;100747.98;2069693;84;29344;-62
2021/10/17 04:42:26;;;;;;;61.05;30.08;;;;;;;8.55;74.63;100751.50;2047375;84;27667;-62
2021/10/17 04:45:32;;;;;;;54.23;29.87;;;;;;;8.56;74.55;100751.91;2073988;83;28654;-63
2021/10/17 04:48:37;;;;;;;54.15;30.50;;;;;;;8.54;74.56;100751.09;2122611;83;31251;-62
2021/10/17 04:51:43;;;;;;;56.37;28.77;;;;;;;8.54;74.62;100743.97;2090015;83;32933;-62
2021/10/17 04:54:49;;;;;;;61.60;28.87;;;;;;;8.54;74.54;100753.31;2148349;81;29348;-63
2021/10/17 04:57:56;;;;;;;50.67;27.07;;;;;;;8.53;74.57;100739.55;2161185;81;27713;-63
2021/10/17 05:01:02;;;;;;;54.38;29.05;;;;;;;8.54;74.63;100742.63;2157595;81;28637;-63
2021/10/17 05:04:05;;;;;;;52.60;27.67;;;;;;;8.55;74.58;100747.50;2161116;81;31876;-62
2021/10/17 05:07:11;;;;;;;55.65;28.98;;;;;;;8.54;74.59;100744.41;2130383;81;33815;-63
2021/10/17 05:10:17;;;;;;;52.98;30.45;;;;;;;8.55;74.52;100748.83;2098487;82;29410;-62
2021/10/17 05:13:21;;;;;;;58.45;31.57;;;;;;;8.54;74.53;100745.30;2120471;81;27740;-62
2021/10/17 05:16:27;;;;;;;58.50;32.48;;;;;;;8.54;74.61;100749.75;2127764;81;28671;-62
2021/10/17 05:19:33;;;;;;;60.25;31.62;;;;;;;8.55;74.55;100750.17;2118685;81;31052;-62
2021/10/17 05:22:37;;;;;;;58.38;30.15;;;;;;;8.53;74.57;100747.56;2132405;82;33775;-62
2021/10/17 05:25:43;;;;;;;60.25;30.65;;;;;;;8.55;74.58;100746.16;2144394;81;29359;-63
2021/10/17 05:28:49;;;;;;;57.60;29.02;;;;;;;8.55;74.53;100745.72;2166712;81;27850;-62
2021/10/17 05:31:55;;;;;;;53.92;27.65;;;;;;;8.56;74.53;100744.80;2161282;81;28703;-62
2021/10/17 05:35:00;;;;;;;52.83;26.07;;;;;;;8.56;74.45;100754.14;2133104;81;31100;-62
2021/10/17 05:38:06;;;;;;;46.63;25.27;;;;;;;8.55;74.40;100757.73;2117073;81;33828;-63
2021/10/17 05:41:12;;;;;;;45.48;26.33;;;;;;;8.56;74.44;100753.25;2129625;81;30308;-62
2021/10/17 05:44:17;;;;;;;52.38;27.35;;;;;;;8.59;74.55;100757.16;2130235;81;27682;-63
2021/10/17 05:47:19;;;;;;;51.42;26.65;;;;;;;8.60;74.59;100759.80;2090700;82;28675;-63
2021/10/17 05:50:23;;;;;;;54.65;26.85;;;;;;;8.62;74.50;100764.59;2095072;83;32192;-62
2021/10/17 05:53:28;;;;;;;50.43;25.30;;;;;;;8.66;74.61;100761.38;2057152;83;32977;-63
2021/10/17 05:56:32;;;;;;;49.53;25.55;;;;;;;8.68;74.52;100758.20;2057865;84;29339;-63
2021/10/17 05:59:38;;;;;;;50.85;25.00;;;;;;;8.71;74.30;100758.55;2034309;84;27887;-62
2021/10/17 06:02:43;;;;;;;49.35;25.88;;;;;;;8.72;74.32;100758.48;2080932;83;29520;-63
2021/10/17 06:05:59;;;;;;;49.95;25.75;;;;;;;8.74;74.31;100755.30;2060631;84;31093;-63
2021/10/17 06:08:58;;;;;;;51.68;26.37;;;;;;;8.77;74.18;100759.20;2042939;84;33083;-63
2021/10/17 06:15:12;;;;;;;50.58;25.05;;;;;;;8.88;74.43;100757.49;2101467;82;27703;-63
2021/10/17 06:18:19;;;;;;;45.25;24.45;;;;;;;8.93;74.45;100758.22;2102443;83;28879;-62
2021/10/17 06:21:25;;;;;;;46.23;24.72;;;;;;;8.99;74.26;100761.58;2057602;84;31125;-61
2021/10/17 06:24:28;;;;;;;51.65;25.20;;;;;;;9.05;74.21;100762.70;2073137;84;33782;-61
2021/10/17 06:27:34;;;;;;;48.08;23.90;;;;;;;9.10;74.14;100770.10;2073531;83;29543;-62
2021/10/17 06:30:38;;;;;;;47.48;23.38;;;;;;;9.14;74.16;100765.03;2083423;84;27756;-61
2021/10/17 06:33:43;;;;;;;43.98;23.07;;;;;;;9.18;74.05;100770.68;2107453;83;28871;-61
2021/10/17 06:36:49;;;;;;;44.73;23.90;;;;;;;9.23;74.03;100770.51;2123562;83;31061;-61
2021/10/17 06:39:55;;;;;;;44.98;24.07;;;;;;;9.28;73.88;100772.55;2109887;83;33826;-62
2021/10/17 06:43:02;;;;;;;52.00;24.23;;;;;;;9.35;73.92;100777.21;2143303;81;29388;-61
2021/10/17 06:46:07;;;;;;;40.80;22.07;;;;;;;9.42;73.74;100780.94;2116016;83;27663;-61
2021/10/17 06:49:10;;;;;;;44.75;22.32;;;;;;;9.48;73.72;100777.16;2072687;82;28691;-61
2021/10/17 06:52:17;;;;;;;44.25;22.90;;;;;;;9.55;73.46;100776.45;2103100;82;31041;-61
2021/10/17 06:55:21;;;;;;;40.83;21.17;;;;;;;9.56;73.15;100776.42;2109951;82;32992;-62
2021/10/17 06:58:26;;;;;;;38.83;20.85;;;;;;;9.64;73.28;100779.25;2094289;82;29346;-62
2021/10/17 07:01:32;;;;;;;41.45;21.10;;;;;;;9.72;73.08;100788.73;2114871;83;27846;-62
2021/10/17 07:04:37;;;;;;;39.58;21.30;;;;;;;9.80;72.91;100783.56;2013372;85;28705;-63
2021/10/17 07:07:39;;;;;;;42.45;22.27;;;;;;;9.91;72.95;100782.67;2085211;83;31060;-62
2021/10/17 07:10:43;;;;;;;37.83;20.85;;;;;;;10.01;72.79;100785.86;2066446;83;33425;-63
2021/10/17 07:13:48;;;;;;;34.75;20.75;;;;;;;10.12;72.78;100787.63;2074781;83;29337;-62
2021/10/17 07:16:51;;;;;;;32.28;19.85;;;;;;;10.23;72.60;100793.91;2055486;84;27809;-63
2021/10/17 07:19:56;;;;;;;41.68;19.52;;;;;;;10.36;72.29;100798.30;2087543;82;30141;-61
2021/10/17 07:22:59;;;;;;;32.48;18.17;;;;;;;10.43;71.97;100798.47;2109789;81;31810;-64
2021/10/17 07:26:05;;;;;;;35.10;18.10;;;;;;;10.55;72.06;100795.76;2104602;82;32994;-62
2021/10/17 07:29:10;;;;;;;31.55;17.20;;;;;;;10.66;72.04;100791.30;2117010;82;29637;-61
2021/10/17 07:32:12;;;;;;;29.35;15.98;;;;;;;10.77;71.36;100796.20;2093062;82;27775;-61
2021/10/17 07:35:14;;;;;;;36.58;17.20;;;;;;;10.84;71.37;100793.65;2087263;82;29868;-61
2021/10/17 07:38:16;;;;;;;32.17;17.90;;;;;;;10.94;71.33;100796.36;2080407;83;31441;-61
2021/10/17 07:41:20;;;;;;;29.85;15.70;;;;;;;11.05;71.08;100795.01;2130532;81;33813;-61
2021/10/17 07:44:22;;;;;;;33.70;17.48;;;;;;;11.15;71.16;100791.45;2125839;83;29383;-62
2021/10/17 07:47:25;;;;;;;33.95;16.35;;;;;;;11.24;70.98;100791.06;2122744;83;28102;-60
2021/10/17 07:50:28;;;;;;;30.32;15.20;;;;;;;11.29;70.29;100786.34;2079395;83;29087;-60
2021/10/17 07:53:34;;;;;;;30.82;14.53;;;;;;;11.37;70.16;100791.36;2090851;83;32136;-61
2021/10/17 07:56:36;;;;;;;28.55;13.95;;;;;;;11.45;70.07;100786.53;2159983;80;34175;-65
2021/10/17 07:59:39;;;;;;;23.60;15.13;;;;;;;11.54;69.84;100788.78;2156763;81;29175;-62
2021/10/17 08:02:41;;;;;;;24.65;13.05;;;;;;;11.63;69.58;100784.81;2134698;81;27745;-61
2021/10/17 08:05:45;;;;;;;25.00;13.48;;;;;;;11.70;68.71;100780.91;2156931;81;30174;-64
2021/10/17 08:08:50;;;;;;;28.17;14.20;;;;;;;11.75;68.65;100781.17;2164292;81;34767;-61
2021/10/17 08:11:56;;;;;;;27.10;12.73;;;;;;;11.77;68.79;100785.52;2165051;81;32995;-61
2021/10/17 08:14:58;;;;;;;23.12;12.68;;;;;;;11.81;68.57;100784.89;2095881;83;29390;-61
2021/10/17 08:18:00;;;;;;;22.07;13.18;;;;;;;11.87;68.86;100780.59;2096071;83;27935;-61
2021/10/17 08:21:01;;;;;;;24.40;12.80;;;;;;;11.99;68.97;100791.26;2095721;83;29989;-62
2021/10/17 08:24:04;;;;;;;32.50;14.68;;;;;;;12.08;68.84;100787.26;2163267;80;31691;-61
2021/10/17 08:27:07;;;;;;;19.75;12.68;;;;;;;12.19;68.39;100792.08;2146343;81;34147;-61
2021/10/17 08:30:11;;;;;;;22.77;12.80;;;;;;;12.30;68.35;100795.14;2121832;83;29438;-61
2021/10/17 08:33:16;;;;;;;20.15;11.65;;;;;;;12.43;68.34;100788.21;2077172;84;27714;-63
2021/10/17 08:36:19;;;;;;;19.62;11.15;;;;;;;12.55;67.23;100784.50;2063914;84;28650;-61
2021/10/17 08:39:22;;;;;;;20.12;12.33;;;;;;;12.64;67.51;100789.89;2068819;84;31033;-62
2021/10/17 08:42:24;;;;;;;23.65;12.30;;;;;;;12.74;67.15;100785.81;2088553;84;33008;-63
2021/10/17 08:45:28;;;;;;;25.17;14.03;;;;;;;12.84;66.78;100792.44;2061806;85;29382;-62
2021/10/17 08:48:33;;;;;;;24.80;13.07;;;;;;;12.97;66.93;100795.38;2060800;84;27840;-61
2021/10/17 08:51:35;;;;;;;23.87;14.05;;;;;;;13.01;65.91;100792.91;2060691;84;28724;-61
2021/10/17 08:54:39;;;;;;;28.10;15.90;;;;;;;13.05;66.03;100787.77;2056738;84;31485;-62
2021/10/17 08:57:41;;;;;;;29.10;16.85;;;;;;;13.15;66.01;100789.50;2073389;83;33776;-62
2021/10/17 09:00:45;;;;;;;31.07;16.50;;;;;;;13.22;65.64;100788.23;2076553;84;30043;-62
2021/10/17 09:04:01;;;;;;;25.32;17.23;;;;;;;13.31;65.26;100794.06;2061955;84;27668;-61
2021/10/17 09:07:18;;;;;;;30.88;18.25;;;;;;;13.33;64.97;100791.67;2083495;84;28698;-61
2021/10/17 09:10:21;;;;;;;29.42;17.32;;;;;;;13.34;65.13;100795.26;2061915;84;31791;-62
2021/10/17 09:13:24;;;;;;;32.05;17.90;;;;;;;13.39;64.86;100795.89;2061374;84;33165;-62
2021/10/17 09:16:28;;;;;;;32.38;15.28;;;;;;;13.43;65.01;100799.31;2072777;84;29351;-62
2021/10/17 09:19:32;;;;;;;27.25;15.10;;;;;;;13.48;64.44;100799.94;2075441;84;27608;-62
2021/10/17 09:22:38;;;;;;;34.53;22.27;;;;;;;13.53;64.26;100795.16;2077444;84;28685;-62
2021/10/17 09:25:44;;;;;;;24.15;15.20;;;;;;;13.52;63.74;100800.15;2091604;83;31875;-61
2021/10/17 09:28:50;;;;;;;26.00;15.05;;;;;;;13.59;63.80;100800.68;2084081;84;32968;-63
2021/10/17 09:31:57;;;;;;;23.55;14.35;;;;;;;13.61;63.75;100801.01;2077291;84;29366;-62
2021/10/17 09:35:06;;;;;;;24.52;13.60;;;;;;;13.70;63.82;100802.33;2130794;82;27650;-70
2021/10/17 09:38:09;;;;;;;20.48;12.78;;;;;;;13.81;63.50;100800.41;2132078;82;28203;-70
2021/10/17 09:41:36;;;;;;;18.77;11.85;;;;;;;13.89;63.38;100798.63;2128776;82;31206;-70
2021/10/17 09:44:44;;;;;;;18.87;11.80;;;;;;;13.98;63.29;100797.61;2128523;83;34012;-69
2021/10/17 09:47:50;;;;;;;17.05;11.60;;;;;;;14.10;62.55;100795.20;2123563;83;29376;-62
2021/10/17 09:51:11;;;;;;;24.57;11.57;;;;;;;14.19;62.72;100796.51;2105542;83;27727;-62
2021/10/17 09:54:16;;;;;;;21.10;12.25;;;;;;;14.27;62.62;100790.18;2130512;82;28699;-63
2021/10/17 09:57:19;;;;;;;16.95;10.70;;;;;;;14.36;62.43;100793.72;2104961;83;31224;-63
2021/10/17 10:00:26;;;;;;;17.90;10.18;;;;;;;14.39;61.95;100788.16;2132184;82;34196;-62
2021/10/17 10:03:31;;;;;;;17.87;11.10;;;;;;;14.43;61.37;100780.75;2131767;82;28783;-63
2021/10/17 10:06:36;;;;;;;20.27;11.65;;;;;;;14.44;61.57;100784.69;2131538;83;27812;-62
2021/10/17 10:09:44;;;;;;;22.22;11.43;;;;;;;14.46;61.41;100784.62;2074275;84;29543;-62
2021/10/17 10:12:49;;;;;;;20.02;10.10;;;;;;;14.53;61.40;100784.62;2030155;85;31100;-62
2021/10/17 10:15:54;;;;;;;;;;;;;;;14.62;61.04;100785.06;2130301;83;33045;-62
2021/10/17 10:19:04;;;;;;;19.12;9.90;;;;;;;14.65;60.65;100783.51;2126143;82;30113;-63
2021/10/17 10:22:10;;;;;;;18.98;10.72;;;;;;;14.67;60.63;100781.59;2057960;84;27777;-62
2021/10/17 10:25:16;;;;;;;16.80;9.83;;;;;;;14.77;60.53;100783.30;2064608;85;29627;-61
2021/10/17 10:28:21;;;;;;;23.32;10.03;;;;;;;14.81;60.45;100781.67;2063690;85;31873;-63
2021/10/17 10:31:46;;;;;;;17.82;10.23;;;;;;;14.89;60.50;100778.55;2053212;85;33734;-61
2021/10/17 10:34:55;;;;;;;21.33;10.48;;;;;;;14.96;60.45;100774.50;2003051;87;29381;-62
2021/10/17 10:37:57;;;;;;;19.32;10.35;;;;;;;15.02;60.24;100771.44;2012504;87;28387;-62
2021/10/17 10:41:22;;;;;;;19.90;9.83;;;;;;;15.02;59.79;100772.79;2012530;86;28685;-63
2021/10/17 10:44:30;;;;;;;16.27;9.25;;;;;;;15.00;59.45;100768.42;1986778;86;30189;-62
2021/10/17 10:47:36;;;;;;;17.73;9.53;;;;;;;14.99;59.58;100776.13;2010233;87;33148;-62
2021/10/17 10:50:44;;;;;;;17.37;8.73;;;;;;;14.94;59.16;100778.27;2016705;86;30131;-60
2021/10/17 10:53:54;;;;;;;18.40;9.90;;;;;;;14.87;58.08;100778.62;2001839;87;27859;-62
2021/10/17 10:56:58;;;;;;;18.23;8.88;;;;;;;14.79;58.75;100770.59;2003871;87;28711;-61
2021/10/17 11:00:08;;;;;;;15.93;8.45;;;;;;;14.82;59.00;100769.92;2001370;87;31884;-62
2021/10/17 11:03:14;;;;;;;17.35;11.00;;;;;;;14.88;58.21;100772.77;2003027;86;33645;-63
2021/10/17 11:06:20;;;;;;;17.07;8.73;;;;;;;14.88;58.50;100778.16;2014424;87;29346;-61
2021/10/17 11:09:25;;;;;;;13.58;8.30;;;;;;;14.91;58.41;100775.25;2009400;86;27873;-62
2021/10/17 11:12:45;;;;;;;15.40;7.72;;;;;;;14.93;57.86;100771.12;2050313;83;28960;-61
2021/10/17 11:15:49;;;;;;;16.60;7.37;;;;;;;14.87;57.45;100766.48;1986014;87;30513;-63
2021/10/17 11:18:59;;;;;;;11.95;7.35;;;;;;;14.91;57.57;100763.11;1981657;88;32977;-63
2021/10/17 11:22:03;;;;;;;15.15;6.22;;;;;;;14.93;56.86;100765.73;1990761;87;30161;-64
2021/10/17 11:25:10;;;;;;;11.22;6.75;;;;;;;14.89;56.90;100771.80;1986238;87;27799;-63
2021/10/17 11:28:13;;;;;;;13.70;6.37;;;;;;;14.87;56.58;100759.73;1992318;88;29548;-63
2021/10/17 11:31:26;;;;;;;10.28;6.35;;;;;;;14.88;56.78;100760.62;1997042;87;31241;-61
2021/10/17 11:34:31;;;;;;;12.03;5.55;;;;;;;14.93;56.33;100754.45;1991775;87;32983;-62
2021/10/17 11:37:35;;;;;;;16.32;6.75;;;;;;;14.88;56.01;100744.44;1985765;87;29414;-64
2021/10/17 11:40:47;;;;;;;8.35;4.22;;;;;;;14.94;55.88;100745.89;2006596;85;28563;-61
2021/10/17 11:43:52;;;;;;;11.05;4.45;;;;;;;14.92;54.68;100743.27;1987375;87;28876;-63
2021/10/17 11:47:00;;;;;;;8.28;3.85;;;;;;;14.92;54.68;100743.27;1970850;87;31097;-63
2021/10/17 11:50:03;;;;;;;8.18;4.10;;;;;;;14.91;54.63;100743.38;1986630;87;33101;-63
2021/10/17 11:53:14;;;;;;;8.45;4.15;;;;;;;14.93;54.45;100745.00;2061802;84;28781;-63
2021/10/17 11:56:21;;;;;;;10.18;5.78;;;;;;;14.76;54.08;100715.48;2050917;82;27811;-62
2021/10/17 11:59:26;;;;;;;7.87;4.00;;;;;;;14.87;53.41;100731.91;2053236;84;29069;-62
2021/10/17 12:02:36;;;;;;;7.30;3.55;;;;;;;14.85;53.43;100730.63;2072349;83;31873;-63
2021/10/17 12:05:43;;;;;;;6.25;3.45;;;;;;;14.85;52.96;100727.94;2084598;84;32993;-64
2021/10/17 12:08:54;;;;;;;7.95;3.87;;;;;;;14.85;53.38;100727.08;2095067;84;30561;-64
2021/10/17 12:12:00;;;;;;;8.53;4.33;;;;;;;14.92;53.41;100729.77;2063220;84;28356;-64
2021/10/17 12:15:12;;;;;;;11.55;6.08;;;;;;;14.92;52.95;100725.73;2090199;84;28769;-64
2021/10/17 12:18:16;;;;;;;9.88;4.47;;;;;;;14.96;53.07;100726.43;2094765;84;31265;-65
2021/10/17 12:21:24;;;;;;;7.50;4.42;;;;;;;14.92;52.66;100725.73;2097189;84;33052;-66
2021/10/17 12:24:30;;;;;;;9.30;4.50;;;;;;;14.85;52.11;100724.38;2095460;83;29357;-64
2021/10/17 12:27:36;;;;;;;8.73;4.75;;;;;;;14.81;51.70;100723.68;2092790;84;27819;-64
2021/10/17 12:30:41;;;;;;;9.20;3.98;;;;;;;14.86;52.50;100724.77;2098261;84;28699;-63
2021/10/17 12:33:48;;;;;;;18.10;5.10;;;;;;;14.89;52.50;100725.45;2093961;84;31076;-63
2021/10/17 12:36:55;;;;;;;10.43;5.72;;;;;;;14.89;51.75;100725.94;2094843;83;34215;-61
2021/10/17 12:40:06;;;;;;;10.82;4.58;;;;;;;14.88;52.15;100722.86;2095438;84;29338;-63
2021/10/17 12:43:12;;;;;;;10.75;5.33;;;;;;;14.92;52.17;100723.53;2095006;83;27786;-63
2021/10/17 12:46:19;;;;;;;8.48;4.15;;;;;;;14.91;52.19;100724.48;2092589;84;29505;-63
2021/10/17 12:49:22;;;;;;;6.20;3.47;;;;;;;14.91;52.02;100722.64;2085022;83;31044;-63
2021/10/17 12:52:32;;;;;;;12.53;4.37;;;;;;;14.93;52.05;100722.56;2091895;83;35196;-64
2021/10/17 12:55:40;;;;;;;7.97;4.10;;;;;;;14.92;52.09;100716.78;2024048;86;29010;-62
2021/10/17 12:58:43;;;;;;;10.78;5.00;;;;;;;14.96;52.16;100714.30;2051117;86;28065;-64
2021/10/17 13:02:11;;;;;;;8.33;4.97;;;;;;;14.96;51.71;100705.70;2049322;85;28652;-63
2021/10/17 13:05:19;;;;;;;7.35;5.28;;;;;;;15.00;51.99;100705.02;2034852;86;31076;-64
2021/10/17 13:08:25;;;;;;;11.18;5.08;;;;;;;15.03;52.26;100710.23;2033623;86;33981;-64
2021/10/17 13:11:32;;;;;;;8.38;4.40;;;;;;;14.98;52.06;100707.83;2031248;86;30536;-64
2021/10/17 13:14:38;;;;;;;7.55;4.00;;;;;;;14.88;51.83;100707.52;2034348;86;27773;-67
2021/10/17 13:17:51;;;;;;;9.90;3.98;;;;;;;14.76;51.63;100710.09;2030175;86;28770;-63
2021/10/17 13:20:56;;;;;;;8.70;3.62;;;;;;;14.59;51.50;100706.09;2030808;86;31820;-64
2021/10/17 13:23:59;;;;;;;10.60;6.53;;;;;;;14.45;51.72;100704.70;2037653;86;33808;-64
2021/10/17 13:27:05;;;;;;;9.98;5.67;;;;;;;14.32;51.51;100705.02;2031835;86;30548;-65
2021/10/17 13:30:11;;;;;;;11.35;4.62;;;;;;;14.18;51.75;100707.19;2008629;87;28381;-65
2021/10/17 13:33:16;;;;;;;9.23;4.55;;;;;;;14.07;52.02;100702.42;2029798;85;28881;-64
2021/10/17 13:36:20;;;;;;;10.08;4.35;;;;;;;13.91;52.06;100699.73;2018256;84;31734;-63
2021/10/17 13:39:26;;;;;;;17.52;5.47;;;;;;;13.77;51.84;100701.39;2035546;85;33890;-64
2021/10/17 13:42:32;;;;;;;9.60;5.95;;;;;;;13.63;51.55;100704.88;2006742;85;28820;-63
2021/10/17 13:45:36;;;;;;;7.97;4.37;;;;;;;13.50;51.96;100704.69;2030961;87;28221;-63
2021/10/17 13:48:41;;;;;;;7.50;4.72;;;;;;;13.40;52.05;100702.13;2026677;87;28660;-65
2021/10/17 13:51:43;;;;;;;12.37;4.08;;;;;;;13.31;52.32;100706.62;2100152;83;32238;-65
2021/10/17 13:54:46;;;;;;;11.85;4.05;;;;;;;13.24;52.53;100708.77;2096364;84;33755;-63
2021/10/17 13:57:53;;;;;;;16.15;5.53;;;;;;;13.16;52.38;100701.58;2104952;84;29352;-67
2021/10/17 14:00:55;;;;;;;14.93;5.72;;;;;;;13.10;52.89;100704.13;2102998;83;27680;-63
2021/10/17 14:03:58;;;;;;;12.60;5.95;;;;;;;13.02;52.71;100709.06;2090579;84;29966;-64
2021/10/17 14:07:04;;;;;;;13.83;6.33;;;;;;;12.96;52.88;100709.38;2097389;83;32223;-64
2021/10/17 14:10:10;;;;;;;15.35;8.05;;;;;;;12.92;53.11;100701.96;2092371;84;32493;-64
2021/10/17 14:13:15;;;;;;;11.75;5.95;;;;;;;12.85;52.92;100701.87;2094004;84;29356;-63
2021/10/17 14:16:20;;;;;;;12.78;5.55;;;;;;;12.82;53.14;100701.58;2093794;83;27712;-64
2021/10/17 14:19:25;;;;;;;12.75;5.45;;;;;;;12.79;53.15;100699.04;2090695;84;28534;-64